< < Back
Terminal Aerodrome Forecast


Current Version              Previous Versions:   1  2  3  4  5  6  7  8  9  

Terminal Aerodrome Forecast

704
FTUS44 KOHX 051725
TAFCSV
TAF
KCSV 051725Z 0518/0618 VRB05KT P6SM SCT250
     FM060200 00000KT P6SM SKC
     FM061200 00000KT P6SM BKN250=

Latest METAR

161
SAUS70 KWBC 061600 RRX
MTRCSV
METAR KCSV 061953Z AUTO VRB05KT 10SM FEW120 08/M08 A3027 RMK AO2 SLP260
T00781083


USA.gov is the U.S. government's official web portal to all federal, state and local government web resources and services.